Time;durP1;ratioP1;P1;durP2;ratioP2;P2;SDS_P1;SDS_P2;PMS_P1;PMS_P2;Temp;Humidity;BMP_temperature;BMP_pressure;BME280_temperature;BME280_humidity;BME280_pressure;Samples;Min_cycle;Max_cycle;Signal;HPM_P1;HPM_P2
2023/03/30 00:00:25;;;;;;;8.37;2.90;;;17.50;40.00;;;;;;20758;6697;304385;-72
2023/03/30 00:03:01;;;;;;;7.15;3.15;;;17.50;40.40;;;;;;20777;6699;333271;-72
2023/03/30 00:05:37;;;;;;;5.47;2.63;;;17.60;40.50;;;;;;20781;6716;117122;-71
2023/03/30 00:08:13;;;;;;;6.70;2.37;;;17.40;41.10;;;;;;21002;6699;116711;-71
2023/03/30 00:10:48;;;;;;;7.20;2.87;;;17.10;42.00;;;;;;20971;6699;116876;-71
2023/03/30 00:13:23;;;;;;;7.17;2.90;;;16.70;42.60;;;;;;20999;6699;117128;-71
2023/03/30 00:15:58;;;;;;;10.00;3.10;;;16.40;43.00;;;;;;21005;6697;117626;-70
2023/03/30 00:18:35;;;;;;;10.97;2.70;;;16.20;43.50;;;;;;20944;6712;117018;-71
2023/03/30 00:21:10;;;;;;;8.90;3.05;;;16.00;44.00;;;;;;20736;6715;275129;-70
2023/03/30 00:23:46;;;;;;;6.00;2.97;;;16.20;45.10;;;;;;20936;6709;117272;-71
2023/03/30 00:26:21;;;;;;;6.63;3.03;;;16.20;44.80;;;;;;21001;6696;117050;-71
2023/03/30 00:28:56;;;;;;;6.25;2.90;;;16.00;44.90;;;;;;20734;6711;324499;-71
2023/03/30 00:31:33;;;;;;;9.83;3.17;;;16.50;44.90;;;;;;20785;6701;304184;-69
2023/03/30 00:34:08;;;;;;;7.70;3.30;;;16.50;44.90;;;;;;20725;6701;306408;-71
2023/03/30 00:36:45;;;;;;;8.53;2.87;;;16.80;44.40;;;;;;20943;6697;117818;-71
2023/03/30 00:39:21;;;;;;;11.13;3.70;;;16.60;44.10;;;;;;21008;6697;116876;-71
2023/03/30 00:41:55;;;;;;;10.00;3.50;;;16.40;44.40;;;;;;20762;6697;306355;-70
2023/03/30 00:44:57;;;;;;;12.43;3.30;;;16.50;44.70;;;;;;20684;6697;336053;-71
2023/03/30 00:47:40;;;;;;;9.67;3.53;;;16.70;44.20;;;;;;21017;6697;120609;-71
2023/03/30 00:50:15;;;;;;;10.63;3.60;;;16.70;44.30;;;;;;20917;6727;116977;-70
2023/03/30 00:52:54;;;;;;;12.77;3.55;;;16.50;44.60;;;;;;20689;6727;299835;-71
2023/03/30 00:55:26;;;;;;;8.80;3.53;;;16.60;44.90;;;;;;20549;6729;308844;-71
2023/03/30 00:58:02;;;;;;;11.90;3.17;;;16.90;44.30;;;;;;20941;6720;116742;-70
2023/03/30 01:00:38;;;;;;;5.97;2.70;;;16.80;44.20;;;;;;20878;6734;127247;-71
2023/03/30 01:03:31;;;;;;;12.15;3.78;;;16.60;44.50;;;;;;20740;6716;280149;-71
2023/03/30 01:06:06;;;;;;;7.90;2.93;;;16.70;44.60;;;;;;20963;6712;117257;-72
2023/03/30 01:08:43;;;;;;;12.93;2.77;;;16.70;44.60;;;;;;20944;6712;117315;-71
2023/03/30 01:11:17;;;;;;;6.07;2.57;;;16.50;44.80;;;;;;20945;6716;117598;-71
2023/03/30 01:13:53;;;;;;;10.77;3.60;;;16.30;45.00;;;;;;20691;6712;310587;-72
2023/03/30 01:16:34;;;;;;;7.50;3.00;;;16.50;45.00;;;;;;20988;6697;117329;-72
2023/03/30 01:19:17;;;;;;;10.73;3.63;;;16.50;44.80;;;;;;20788;6697;305030;-71
2023/03/30 01:22:02;;;;;;;9.47;3.13;;;16.70;44.90;;;;;;21012;6697;116894;-71
2023/03/30 01:24:57;;;;;;;9.53;3.20;;;16.70;44.80;;;;;;20940;6682;117582;-72
2023/03/30 01:27:52;;;;;;;9.87;3.03;;;16.50;45.20;;;;;;21053;6682;116973;-72
2023/03/30 01:30:58;;;;;;;19.37;13.27;;;16.50;47.50;;;;;;20817;6682;278915;-71
2023/03/30 01:33:58;;;;;;;10.20;3.40;;;16.80;47.50;;;;;;20834;6682;276094;-71
2023/03/30 01:36:48;;;;;;;7.57;3.60;;;16.80;47.50;;;;;;20999;6697;116815;-72
2023/03/30 01:39:34;;;;;;;8.73;3.57;;;16.70;47.10;;;;;;20784;6701;304100;-72
2023/03/30 01:42:32;;;;;;;10.60;3.70;;;16.60;48.90;;;;;;21038;6692;119207;-71
2023/03/30 01:45:19;;;;;;;9.37;3.10;;;16.50;48.60;;;;;;20867;6700;117259;-72
2023/03/30 01:48:13;;;;;;;11.77;3.50;;;16.10;48.90;;;;;;20943;6772;116815;-72
2023/03/30 01:50:49;;;;;;;10.00;3.20;;;15.80;49.30;;;;;;20931;6716;119149;-72
2023/03/30 01:53:28;;;;;;;9.82;3.58;;;15.50;49.80;;;;;;20810;6692;287096;-72
2023/03/30 01:56:07;;;;;;;7.47;3.10;;;15.60;51.20;;;;;;20904;6731;116963;-72
2023/03/30 01:58:45;;;;;;;10.43;3.50;;;15.60;51.20;;;;;;20734;6712;276393;-72
2023/03/30 02:01:19;;;;;;;6.83;3.03;;;15.80;52.70;;;;;;21010;6697;116692;-72
2023/03/30 02:03:54;;;;;;;11.90;3.70;;;15.80;53.40;;;;;;20764;6697;305879;-72
2023/03/30 02:06:40;;;;;;;10.63;3.40;;;15.80;53.10;;;;;;20988;6697;116960;-72
2023/03/30 02:09:15;;;;;;;8.90;3.10;;;15.70;52.50;;;;;;21051;6682;116800;-72
2023/03/30 02:11:52;;;;;;;11.37;3.77;;;15.40;52.30;;;;;;20841;6682;304338;-71
2023/03/30 02:14:26;;;;;;;11.60;3.95;;;15.50;53.20;;;;;;20716;6682;337972;-72
2023/03/30 02:17:08;;;;;;;9.33;3.43;;;15.80;53.10;;;;;;20783;6700;307590;-72
2023/03/30 02:19:41;;;;;;;4.90;2.70;;;16.10;52.60;;;;;;20985;6700;117023;-71
2023/03/30 02:22:16;;;;;;;7.15;3.35;;;15.90;52.00;;;;;;20771;6700;306048;-72
2023/03/30 02:24:52;;;;;;;10.47;3.57;;;16.10;53.30;;;;;;20626;6700;307420;-72
2023/03/30 02:27:28;;;;;;;8.90;2.90;;;16.10;52.60;;;;;;21007;6700;117012;-72
2023/03/30 02:30:06;;;;;;;7.87;3.20;;;15.90;52.20;;;;;;21001;6700;117011;-71
2023/03/30 02:32:39;;;;;;;8.77;3.20;;;15.60;52.40;;;;;;20981;6700;117069;-72
2023/03/30 02:35:18;;;;;;;11.68;4.00;;;15.30;52.70;;;;;;20611;6700;326212;-72
2023/03/30 02:38:31;;;;;;;7.70;3.20;;;15.40;53.70;;;;;;21000;6700;117206;-72
2023/03/30 02:41:12;;;;;;;9.53;3.23;;;15.40;53.20;;;;;;21000;6700;116937;-72
2023/03/30 02:44:04;;;;;;;12.60;3.00;;;15.10;53.20;;;;;;20960;6700;116819;-71
2023/03/30 02:46:46;;;;;;;8.83;3.43;;;14.90;53.30;;;;;;20980;6700;117169;-71
2023/03/30 02:49:38;;;;;;;7.83;3.33;;;14.80;53.60;;;;;;20776;6700;278555;-72
2023/03/30 02:52:23;;;;;;;9.93;3.13;;;15.00;54.80;;;;;;21009;6700;117062;-71
2023/03/30 02:55:08;;;;;;;14.27;3.50;;;15.00;54.20;;;;;;20862;6700;121712;-72
2023/03/30 02:58:17;;;;;;;13.63;3.60;;;14.90;54.40;;;;;;21013;6700;116919;-71
2023/03/30 03:00:52;;;;;;;12.33;3.83;;;14.70;54.60;;;;;;20788;6700;275560;-72
2023/03/30 03:03:35;;;;;;;9.27;4.43;;;15.40;56.30;;;;;;20781;6700;308499;-71
2023/03/30 03:06:13;;;;;;;9.67;3.27;;;15.30;56.20;;;;;;20991;6700;117243;-71
2023/03/30 03:08:52;;;;;;;10.18;3.97;;;15.30;55.60;;;;;;20766;6700;292722;-72
2023/03/30 03:11:28;;;;;;;12.67;3.77;;;15.40;56.50;;;;;;20997;6700;117446;-71
2023/03/30 03:14:01;;;;;;;12.00;3.97;;;15.30;57.20;;;;;;20725;6700;316720;-75
2023/03/30 03:16:37;;;;;;;9.67;3.30;;;15.30;57.20;;;;;;20982;6700;119802;-74
2023/03/30 03:19:15;;;;;;;8.80;3.50;;;15.20;56.60;;;;;;21005;6700;116794;-73
2023/03/30 03:21:48;;;;;;;11.30;3.78;;;14.90;56.70;;;;;;20791;6700;292813;-73
2023/03/30 03:24:24;;;;;;;10.33;3.93;;;15.40;57.80;;;;;;20696;6700;314539;-73
2023/03/30 03:27:00;;;;;;;11.07;4.00;;;15.40;57.80;;;;;;20800;6700;303489;-73
2023/03/30 03:29:36;;;;;;;15.50;4.50;;;15.70;57.10;;;;;;20766;6700;276874;-73
2023/03/30 03:32:11;;;;;;;14.10;4.15;;;15.90;56.70;;;;;;20785;6700;275102;-73
2023/03/30 03:34:48;;;;;;;11.00;3.90;;;16.10;56.00;;;;;;20643;6700;295954;-73
2023/03/30 03:37:23;;;;;;;12.23;3.90;;;16.10;56.00;;;;;;21008;6700;117337;-73
2023/03/30 03:39:58;;;;;;;9.65;4.05;;;15.80;55.80;;;;;;20793;6700;274332;-73
2023/03/30 03:42:34;;;;;;;12.07;4.73;;;15.80;56.40;;;;;;20772;6700;304335;-74
2023/03/30 03:45:10;;;;;;;12.30;3.90;;;15.90;56.10;;;;;;20819;6700;117537;-72
2023/03/30 03:51:21;;;;;;;9.17;3.57;;;15.30;56.20;;;;;;21003;6700;117293;-73
2023/03/30 03:53:57;;;;;;;10.67;3.63;;;14.90;56.70;;;;;;20964;6700;116829;-72
2023/03/30 03:56:32;;;;;;;9.90;3.87;;;14.70;57.10;;;;;;20997;6700;116974;-72
2023/03/30 03:59:08;;;;;;;10.68;3.87;;;14.60;57.50;;;;;;20801;6700;332414;-72
2023/03/30 04:01:43;;;;;;;14.33;4.17;;;14.90;58.80;;;;;;20781;6696;303170;-72
2023/03/30 04:04:19;;;;;;;15.75;4.57;;;15.30;57.90;;;;;;20742;6696;307201;-72
2023/03/30 04:06:55;;;;;;;10.67;3.70;;;15.60;56.80;;;;;;21043;6681;116734;-72
2023/03/30 04:09:30;;;;;;;8.10;4.13;;;15.60;56.50;;;;;;21063;6682;118101;-72
2023/03/30 04:12:07;;;;;;;14.07;4.18;;;15.30;56.70;;;;;;20843;6682;338020;-72
2023/03/30 04:14:42;;;;;;;11.20;3.70;;;15.50;57.30;;;;;;20945;6682;120627;-72
2023/03/30 04:17:22;;;;;;;13.80;3.93;;;15.20;57.20;;;;;;21066;6682;117517;-74
2023/03/30 04:19:55;;;;;;;10.53;3.30;;;15.20;57.20;;;;;;21061;6682;116660;-74
2023/03/30 04:22:40;;;;;;;17.87;8.30;;;15.10;57.50;;;;;;21053;6682;117247;-74
2023/03/30 04:25:16;;;;;;;12.03;5.60;;;14.90;57.60;;;;;;20866;6697;124001;-75
2023/03/30 04:27:51;;;;;;;13.93;4.67;;;14.80;57.90;;;;;;21032;6702;120355;-75
2023/03/30 04:30:29;;;;;;;8.83;4.43;;;14.70;58.00;;;;;;20938;6716;117329;-77
2023/03/30 04:33:04;;;;;;;14.43;4.95;;;14.60;58.10;;;;;;20757;6712;275438;-75
2023/03/30 04:35:39;;;;;;;11.30;4.30;;;14.90;59.30;;;;;;20615;6712;277921;-74
2023/03/30 04:38:20;;;;;;;9.63;4.10;;;15.30;58.40;;;;;;20908;6729;120174;-74
2023/03/30 04:40:50;;;;;;;6.70;3.20;;;15.40;57.80;;;;;;20877;6731;125243;-74
2023/03/30 04:43:26;;;;;;;10.17;3.77;;;15.20;58.00;;;;;;20919;6726;117011;-73
2023/03/30 04:46:02;;;;;;;14.07;4.20;;;15.00;58.20;;;;;;20965;6712;117032;-75
2023/03/30 04:48:37;;;;;;;14.90;4.45;;;14.90;58.40;;;;;;20786;6697;278483;-75
2023/03/30 04:51:15;;;;;;;10.33;3.80;;;15.10;58.60;;;;;;20995;6699;117247;-75
2023/03/30 04:53:50;;;;;;;12.87;4.00;;;15.20;58.00;;;;;;20985;6699;117156;-75
2023/03/30 04:56:26;;;;;;;12.68;4.55;;;15.00;58.10;;;;;;20719;6705;338118;-75
2023/03/30 04:59:01;;;;;;;17.80;4.50;;;15.20;58.30;;;;;;21007;6697;117092;-75
2023/03/30 05:01:39;;;;;;;14.03;4.43;;;15.30;57.90;;;;;;20971;6712;118527;-77
2023/03/30 05:04:12;;;;;;;14.57;4.33;;;15.10;57.90;;;;;;20695;6715;287452;-78
2023/03/30 05:06:48;;;;;;;13.73;4.70;;;15.30;57.70;;;;;;20663;6715;287379;-77
2023/03/30 05:09:23;;;;;;;11.07;4.03;;;15.70;56.50;;;;;;20948;6719;120219;-77
2023/03/30 05:11:59;;;;;;;12.98;4.22;;;15.60;56.10;;;;;;20760;6710;338058;-78
2023/03/30 05:14:34;;;;;;;13.00;4.47;;;15.70;55.60;;;;;;20592;6719;278055;-77
2023/03/30 05:17:11;;;;;;;13.40;4.47;;;16.20;54.60;;;;;;20701;6719;331432;-76
2023/03/30 05:19:46;;;;;;;12.37;4.80;;;16.20;54.60;;;;;;20721;6711;304660;-82
2023/03/30 05:22:22;;;;;;;12.30;5.10;;;16.40;54.00;;;;;;20706;6711;307711;-77
2023/03/30 05:24:58;;;;;;;14.83;4.73;;;16.60;53.60;;;;;;20600;6711;280795;-76
2023/03/30 05:27:33;;;;;;;10.45;4.65;;;16.70;53.20;;;;;;20735;6715;326117;-78
2023/03/30 05:30:09;;;;;;;11.38;4.55;;;16.70;52.90;;;;;;20730;6715;306730;-74
2023/03/30 05:32:45;;;;;;;10.10;4.13;;;16.70;52.20;;;;;;20936;6715;117130;-74
2023/03/30 05:35:21;;;;;;;13.80;4.57;;;16.40;53.00;;;;;;20596;6715;277568;-75
2023/03/30 05:37:57;;;;;;;15.25;4.75;;;16.40;53.00;;;;;;20783;6716;304135;-75
2023/03/30 05:40:33;;;;;;;10.57;4.13;;;16.60;52.90;;;;;;20727;6715;280495;-75
2023/03/30 05:43:09;;;;;;;9.20;3.73;;;16.80;51.90;;;;;;20830;6687;303808;-75
2023/03/30 05:45:47;;;;;;;11.17;4.30;;;16.80;51.80;;;;;;20609;6702;306110;-76
2023/03/30 05:48:22;;;;;;;8.67;3.40;;;16.90;51.60;;;;;;20971;6712;116265;-74
2023/03/30 05:50:59;;;;;;;8.83;4.03;;;16.60;51.80;;;;;;20962;6716;119615;-73
2023/03/30 05:53:35;;;;;;;11.13;4.33;;;16.20;52.50;;;;;;20784;6700;308481;-73
2023/03/30 05:56:10;;;;;;;14.07;4.20;;;16.30;53.30;;;;;;21064;6682;123768;-72
2023/03/30 05:58:47;;;;;;;13.25;4.50;;;16.20;54.00;;;;;;20788;6697;275154;-74
2023/03/30 06:01:24;;;;;;;10.90;4.50;;;16.20;54.00;;;;;;20776;6701;304838;-74
2023/03/30 06:03:58;;;;;;;12.30;3.90;;;16.40;53.30;;;;;;20871;6731;116843;-74
2023/03/30 06:06:33;;;;;;;11.17;4.60;;;16.30;53.20;;;;;;20728;6716;276268;-73
2023/03/30 06:09:10;;;;;;;11.83;4.50;;;16.30;53.50;;;;;;20761;6712;279303;-72
2023/03/30 06:11:45;;;;;;;10.77;4.10;;;16.50;52.80;;;;;;20797;6697;305206;-72
2023/03/30 06:14:20;;;;;;;12.13;4.60;;;16.70;52.50;;;;;;20725;6697;311722;-72
2023/03/30 06:16:56;;;;;;;11.60;4.25;;;16.80;52.00;;;;;;20780;6697;334400;-73
2023/03/30 06:19:31;;;;;;;10.67;3.97;;;16.90;51.60;;;;;;21009;6697;123095;-72
2023/03/30 06:22:07;;;;;;;12.18;4.53;;;16.60;51.70;;;;;;20761;6709;334147;-72
2023/03/30 06:24:42;;;;;;;14.73;4.10;;;16.60;53.30;;;;;;20860;6709;117178;-73
2023/03/30 06:27:18;;;;;;;11.13;3.83;;;16.30;53.00;;;;;;20936;6721;116875;-73
2023/03/30 06:29:55;;;;;;;9.17;3.50;;;15.90;53.40;;;;;;20930;6721;117085;-73
2023/03/30 06:32:30;;;;;;;13.70;4.20;;;15.60;54.00;;;;;;20925;6721;117174;-73
2023/03/30 06:35:06;;;;;;;11.07;3.80;;;15.30;54.50;;;;;;20820;6716;117780;-73
2023/03/30 06:37:42;;;;;;;11.12;4.35;;;15.00;55.00;;;;;;20794;6697;303608;-72
2023/03/30 06:40:17;;;;;;;13.93;3.80;;;15.20;57.50;;;;;;20956;6716;116847;-72
2023/03/30 06:42:54;;;;;;;9.17;4.17;;;15.00;57.00;;;;;;20937;6716;116958;-73
2023/03/30 06:45:29;;;;;;;11.80;4.40;;;15.00;57.00;;;;;;20630;6716;276388;-72
2023/03/30 06:48:05;;;;;;;13.37;4.50;;;15.20;58.70;;;;;;20756;6726;276634;-72
2023/03/30 06:50:43;;;;;;;9.83;4.23;;;15.60;58.10;;;;;;20991;6697;116871;-73
2023/03/30 06:53:16;;;;;;;15.43;3.93;;;15.60;57.70;;;;;;20967;6714;116696;-72
2023/03/30 06:55:51;;;;;;;20.08;8.60;;;15.40;57.90;;;;;;20520;6785;293594;-71
2023/03/30 06:58:27;;;;;;;19.03;7.60;;;15.70;57.90;;;;;;20785;6697;276049;-72
2023/03/30 07:01:13;;;;;;;12.43;4.57;;;16.10;56.90;;;;;;20751;6712;338815;-73
2023/03/30 07:03:49;;;;;;;12.07;4.90;;;16.50;56.10;;;;;;20669;6729;278553;-72
2023/03/30 07:06:26;;;;;;;9.03;4.07;;;16.70;54.80;;;;;;20979;6709;116742;-72
2023/03/30 07:09:03;;;;;;;9.67;4.43;;;16.70;54.80;;;;;;20982;6707;116918;-72
2023/03/30 07:11:40;;;;;;;10.63;4.03;;;16.50;55.00;;;;;;20943;6716;117358;-75
2023/03/30 07:14:13;;;;;;;13.27;4.50;;;16.20;55.20;;;;;;20751;6697;278495;-72
2023/03/30 07:16:48;;;;;;;9.17;4.07;;;16.30;54.90;;;;;;20774;6697;309138;-72
2023/03/30 07:19:25;;;;;;;10.23;3.70;;;16.50;54.00;;;;;;20743;6712;308939;-71
2023/03/30 07:22:03;;;;;;;10.63;4.00;;;16.70;53.30;;;;;;20844;6682;308200;-72
2023/03/30 07:24:36;;;;;;;8.00;3.73;;;16.80;52.70;;;;;;20953;6682;117352;-72
2023/03/30 07:27:15;;;;;;;12.20;3.83;;;16.60;52.80;;;;;;21069;6682;120513;-73
2023/03/30 07:29:47;;;;;;;9.73;3.93;;;16.30;53.30;;;;;;21060;6682;116922;-72
2023/03/30 07:32:23;;;;;;;12.43;4.00;;;16.00;53.80;;;;;;21059;6682;116764;-73
2023/03/30 07:34:58;;;;;;;14.75;4.28;;;15.70;54.10;;;;;;20717;6680;300007;-73
2023/03/30 07:37:36;;;;;;;12.93;4.33;;;15.90;54.70;;;;;;20806;6697;278143;-72
2023/03/30 07:40:11;;;;;;;11.57;4.00;;;16.50;53.90;;;;;;20695;6730;309846;-72
2023/03/30 07:42:47;;;;;;;14.13;3.67;;;16.40;53.80;;;;;;20938;6716;117105;-72
2023/03/30 07:45:24;;;;;;;15.40;4.57;;;16.40;53.80;;;;;;20570;6711;307767;-74
2023/03/30 07:47:59;;;;;;;9.83;3.60;;;16.40;54.10;;;;;;20957;6717;116845;-74
2023/03/30 07:50:35;;;;;;;9.40;4.62;;;16.50;55.40;;;;;;20566;6712;305782;-74
2023/03/30 07:53:11;;;;;;;14.30;4.77;;;16.50;55.10;;;;;;20824;6690;274327;-73
2023/03/30 07:55:47;;;;;;;12.03;4.77;;;16.80;54.50;;;;;;20936;6675;66832;-72
2023/03/30 07:58:22;;;;;;;12.90;4.17;;;16.70;54.20;;;;;;21048;6686;119620;-72
2023/03/30 08:01:00;;;;;;;13.57;4.30;;;16.60;55.50;;;;;;20756;6706;309764;-72
2023/03/30 08:03:35;;;;;;;12.70;4.07;;;16.60;55.50;;;;;;20797;6690;338100;-73
2023/03/30 08:06:10;;;;;;;14.00;4.90;;;16.90;55.70;;;;;;20818;6693;304510;-73
2023/03/30 08:08:46;;;;;;;15.60;4.50;;;17.00;55.20;;;;;;20741;6709;317710;-74
2023/03/30 08:11:21;;;;;;;10.20;3.80;;;17.20;55.60;;;;;;20991;6705;117442;-72
2023/03/30 08:13:56;;;;;;;9.53;3.53;;;17.00;55.40;;;;;;20980;6690;123743;-72
2023/03/30 08:16:32;;;;;;;7.93;4.07;;;16.60;55.50;;;;;;21019;6690;117191;-76
2023/03/30 08:19:09;;;;;;;10.70;3.97;;;16.30;56.10;;;;;;21027;6690;116850;-77
2023/03/30 08:21:44;;;;;;;10.65;4.30;;;16.00;56.60;;;;;;20725;6720;308281;-70
2023/03/30 08:24:20;;;;;;;10.73;4.30;;;16.20;57.80;;;;;;20942;6705;117324;-75
2023/03/30 08:26:55;;;;;;;7.37;4.73;;;16.20;57.40;;;;;;20970;6694;117043;-72
2023/03/30 08:29:32;;;;;;;10.27;4.40;;;16.10;59.10;;;;;;20808;6696;275074;-72
2023/03/30 08:32:07;;;;;;;10.68;5.35;;;16.10;58.90;;;;;;20780;6705;333888;-72
2023/03/30 08:34:43;;;;;;;8.87;4.10;;;16.30;58.70;;;;;;20875;6707;117610;-73
2023/03/30 08:37:18;;;;;;;5.77;3.47;;;16.20;58.00;;;;;;20992;6705;116989;-72
2023/03/30 08:39:55;;;;;;;7.13;3.80;;;15.60;58.40;;;;;;21011;6697;116927;-72
2023/03/30 08:43:00;;;;;;;8.55;4.03;;;15.60;58.90;;;;;;20739;6709;308925;-73
2023/03/30 08:45:37;;;;;;;9.03;3.47;;;15.70;60.30;;;;;;20759;6725;117156;-72
2023/03/30 08:48:15;;;;;;;4.77;2.97;;;15.60;59.90;;;;;;21039;6682;116730;-73
2023/03/30 08:50:58;;;;;;;7.13;3.63;;;15.40;60.60;;;;;;20993;6697;117415;-73
2023/03/30 08:53:34;;;;;;;10.23;3.77;;;15.30;60.50;;;;;;20995;6693;117874;-73
2023/03/30 08:56:17;;;;;;;10.77;4.00;;;15.50;62.10;;;;;;20721;6698;333661;-73
2023/03/30 08:59:25;;;;;;;4.90;3.20;;;15.60;61.80;;;;;;21000;6690;121045;-73
2023/03/30 09:02:02;;;;;;;8.10;3.90;;;15.60;61.70;;;;;;21037;6682;117843;-73
2023/03/30 09:04:45;;;;;;;11.63;10.20;;;15.50;61.60;;;;;;20884;6697;122798;-73
2023/03/30 09:07:20;;;;;;;11.70;7.93;;;15.40;61.60;;;;;;21022;6697;117205;-74
2023/03/30 09:09:56;;;;;;;9.50;5.33;;;15.30;61.60;;;;;;20945;6720;120671;-73
2023/03/30 09:12:38;;;;;;;10.63;3.83;;;15.10;61.70;;;;;;20919;6724;126355;-73
2023/03/30 09:15:27;;;;;;;10.63;4.40;;;15.10;62.30;;;;;;20567;6719;307635;-73
2023/03/30 09:18:13;;;;;;;11.20;4.00;;;15.30;62.90;;;;;;20950;6719;116896;-72
2023/03/30 09:20:48;;;;;;;6.07;4.00;;;15.30;62.90;;;;;;20920;6719;117506;-73
2023/03/30 09:23:28;;;;;;;9.90;4.30;;;15.30;64.90;;;;;;20704;6725;335205;-73
2023/03/30 09:26:10;;;;;;;11.27;4.43;;;15.20;64.20;;;;;;20876;6730;282522;-73
2023/03/30 09:28:55;;;;;;;9.67;3.77;;;15.00;63.60;;;;;;20995;6695;127093;-77
2023/03/30 09:31:51;;;;;;;9.17;3.30;;;14.80;63.90;;;;;;20954;6722;116980;-75
2023/03/30 09:34:43;;;;;;;6.37;3.10;;;14.80;63.90;;;;;;20893;6697;117342;-75
2023/03/30 09:37:20;;;;;;;7.83;4.97;;;14.70;63.90;;;;;;20975;6710;116838;-72
2023/03/30 09:39:57;;;;;;;4.77;3.00;;;14.50;64.00;;;;;;20943;6717;116886;-72
2023/03/30 09:42:40;;;;;;;4.40;2.70;;;14.40;64.00;;;;;;20744;6704;332921;-74
2023/03/30 09:45:19;;;;;;;6.07;3.17;;;14.70;64.00;;;;;;20866;6708;116925;-73
2023/03/30 09:47:55;;;;;;;6.47;3.33;;;14.70;63.30;;;;;;20740;6715;305374;-73
2023/03/30 09:50:31;;;;;;;5.45;3.00;;;15.20;62.50;;;;;;20805;6690;333564;-73
2023/03/30 09:53:19;;;;;;;5.57;3.13;;;15.20;62.50;;;;;;20801;6697;303890;-73
2023/03/30 09:56:15;;;;;;;6.45;3.20;;;15.60;61.80;;;;;;20802;6697;276259;-73
2023/03/30 09:58:50;;;;;;;3.50;3.20;;;15.80;61.10;;;;;;20921;6724;116686;-72
2023/03/30 10:01:26;;;;;;;4.97;3.00;;;15.60;61.30;;;;;;20793;6699;304652;-73
2023/03/30 10:04:08;;;;;;;5.30;3.13;;;15.70;62.30;;;;;;20914;6706;116786;-73
2023/03/30 10:06:47;;;;;;;4.77;2.77;;;15.70;62.20;;;;;;20931;6700;116663;-72
2023/03/30 10:09:24;;;;;;;5.33;3.00;;;15.60;62.70;;;;;;20989;6707;117708;-73
2023/03/30 10:11:59;;;;;;;4.67;3.57;;;15.40;62.70;;;;;;20854;6675;307689;-73
2023/03/30 10:14:35;;;;;;;5.90;3.45;;;15.70;62.50;;;;;;20647;6705;277434;-72
2023/03/30 10:17:17;;;;;;;5.90;3.03;;;16.10;61.50;;;;;;20980;6720;117365;-73
2023/03/30 10:19:53;;;;;;;7.35;3.30;;;16.00;60.70;;;;;;20799;6701;302074;-73
2023/03/30 10:22:29;;;;;;;4.70;2.90;;;16.20;61.40;;;;;;20951;6761;119647;-73
2023/03/30 10:25:04;;;;;;;4.63;2.80;;;16.10;60.80;;;;;;20799;6725;117496;-73
2023/03/30 10:27:44;;;;;;;6.60;3.80;;;15.70;61.40;;;;;;20930;6725;123042;-73
2023/03/30 10:30:16;;;;;;;5.77;3.43;;;15.60;61.20;;;;;;20775;6705;305074;-73
2023/03/30 10:32:52;;;;;;;6.53;2.90;;;15.80;61.60;;;;;;20973;6705;118532;-73
2023/03/30 10:35:32;;;;;;;7.43;3.30;;;15.80;61.30;;;;;;20772;6725;122337;-75
2023/03/30 10:38:09;;;;;;;7.23;3.60;;;15.60;61.60;;;;;;20753;6716;314939;-72
2023/03/30 10:40:43;;;;;;;6.17;3.63;;;15.70;61.90;;;;;;20978;6705;117280;-73
2023/03/30 10:43:19;;;;;;;7.73;3.30;;;15.70;61.50;;;;;;20946;6720;117249;-72
2023/03/30 10:45:55;;;;;;;4.37;3.42;;;15.60;61.20;;;;;;20784;6705;281909;-72
2023/03/30 10:48:39;;;;;;;6.57;3.43;;;15.70;61.90;;;;;;20740;6705;304929;-72
2023/03/30 10:51:09;;;;;;;6.93;3.72;;;16.10;61.70;;;;;;20721;6722;304961;-73
2023/03/30 10:53:47;;;;;;;5.60;3.62;;;16.40;60.40;;;;;;20754;6703;307341;-72
2023/03/30 10:56:25;;;;;;;6.53;3.20;;;16.50;59.40;;;;;;20960;6714;119312;-74
2023/03/30 10:59:23;;;;;;;9.13;3.87;;;16.50;59.40;;;;;;20735;6717;291826;-73
2023/03/30 11:02:19;;;;;;;3.83;3.07;;;16.50;59.40;;;;;;20994;6705;117138;-72
2023/03/30 11:04:57;;;;;;;3.97;2.90;;;16.30;59.50;;;;;;20882;6690;117639;-73
2023/03/30 11:07:39;;;;;;;5.43;3.33;;;15.90;60.10;;;;;;20977;6699;116907;-72
2023/03/30 11:13:48;;;;;;;7.23;4.37;;;15.90;61.30;;;;;;20931;6706;116753;-76
2023/03/30 11:16:25;;;;;;;7.20;3.33;;;15.70;60.80;;;;;;21059;6682;116763;-75
2023/03/30 11:19:02;;;;;;;6.65;3.92;;;15.60;61.30;;;;;;20573;6743;332699;-77
2023/03/30 11:22:06;;;;;;;7.20;3.40;;;15.80;61.60;;;;;;21044;6687;117611;-76
2023/03/30 11:24:42;;;;;;;8.07;4.23;;;15.80;61.10;;;;;;20701;6695;278108;-74
2023/03/30 11:27:19;;;;;;;6.53;3.87;;;16.10;61.50;;;;;;20979;6705;116949;-71
2023/03/30 11:30:14;;;;;;;5.33;4.23;;;16.10;61.30;;;;;;20834;6690;275899;-74
2023/03/30 11:33:03;;;;;;;7.17;4.20;;;16.30;60.90;;;;;;20817;6690;275593;-71
2023/03/30 11:35:39;;;;;;;6.07;4.30;;;16.70;61.10;;;;;;20686;6675;302792;-72
2023/03/30 11:38:18;;;;;;;8.80;4.25;;;17.00;60.40;;;;;;20840;6680;288115;-72
2023/03/30 11:40:56;;;;;;;5.03;3.80;;;17.30;59.50;;;;;;21046;6682;116799;-74
2023/03/30 11:43:32;;;;;;;7.30;4.20;;;17.20;59.70;;;;;;20829;6680;304337;-73
2023/03/30 11:46:27;;;;;;;7.97;3.80;;;17.30;61.20;;;;;;21035;6690;116611;-73
2023/03/30 11:49:09;;;;;;;6.67;3.77;;;17.20;60.90;;;;;;21029;6690;117940;-77
2023/03/30 11:52:05;;;;;;;9.27;3.37;;;17.00;60.80;;;;;;21008;6700;116791;-75
2023/03/30 11:54:57;;;;;;;8.88;4.22;;;16.80;60.80;;;;;;20380;6761;279576;-73
2023/03/30 11:57:35;;;;;;;4.57;3.93;;;16.90;60.10;;;;;;20054;6781;119300;-73
2023/03/30 12:00:18;;;;;;;6.25;3.92;;;16.80;59.90;;;;;;20778;6696;309152;-72
2023/03/30 12:03:22;;;;;;;6.37;3.30;;;16.80;59.10;;;;;;20966;6704;117292;-71
2023/03/30 12:06:31;;;;;;;7.57;4.40;;;16.80;59.10;;;;;;21012;6689;116804;-73
2023/03/30 12:09:10;;;;;;;7.43;4.12;;;16.50;59.90;;;;;;20813;6689;294045;-73
2023/03/30 12:11:46;;;;;;;11.10;5.68;;;16.80;59.30;;;;;;20764;6707;337161;-77
2023/03/30 12:14:54;;;;;;;4.67;4.20;;;17.10;58.70;;;;;;20928;6674;67085;-73
2023/03/30 12:17:36;;;;;;;11.37;7.63;;;16.80;57.80;;;;;;20987;6705;116451;-78
2023/03/30 12:20:32;;;;;;;5.00;3.53;;;16.80;57.70;;;;;;21015;6700;116969;-78
2023/03/30 12:23:25;;;;;;;9.93;7.37;;;16.80;54.70;;;;;;20812;6681;298603;-74
2023/03/30 12:26:23;;;;;;;5.47;4.80;;;16.70;54.60;;;;;;20811;6693;305035;-76
2023/03/30 12:29:12;;;;;;;22.03;20.03;;;17.20;53.60;;;;;;20942;6720;117025;-72
2023/03/30 12:31:57;;;;;;;4.40;3.50;;;17.00;53.40;;;;;;21035;6704;117395;-72
2023/03/30 12:34:36;;;;;;;5.10;3.87;;;16.80;54.10;;;;;;20659;6693;307010;-73
2023/03/30 12:37:19;;;;;;;5.80;3.17;;;17.00;52.30;;;;;;20987;6704;116849;-72
2023/03/30 12:40:05;;;;;;;5.73;5.23;;;17.00;52.50;;;;;;20968;6707;117246;-72
2023/03/30 12:42:38;;;;;;;4.00;3.60;;;16.80;52.90;;;;;;20995;6705;117208;-73
2023/03/30 12:45:15;;;;;;;4.40;3.50;;;16.70;53.30;;;;;;20789;6725;117718;-72
2023/03/30 12:48:14;;;;;;;4.28;3.20;;;16.80;53.30;;;;;;20710;6725;279532;-73
2023/03/30 12:51:19;;;;;;;5.05;3.60;;;16.80;53.30;;;;;;20662;6725;332999;-73
2023/03/30 12:54:21;;;;;;;5.53;3.00;;;17.30;53.20;;;;;;20875;6727;116806;-73
2023/03/30 12:57:06;;;;;;;4.10;2.87;;;17.40;52.70;;;;;;20755;6704;309344;-73
2023/03/30 12:59:57;;;;;;;4.07;2.83;;;17.60;51.70;;;;;;20338;6768;119153;-72
2023/03/30 13:02:54;;;;;;;3.85;2.90;;;17.60;51.70;;;;;;20767;6705;275500;-73
2023/03/30 13:05:29;;;;;;;3.97;2.90;;;17.80;50.80;;;;;;20581;6727;314013;-75
2023/03/30 13:08:05;;;;;;;3.80;3.00;;;18.00;50.20;;;;;;20708;6725;275920;-76
2023/03/30 13:10:41;;;;;;;4.43;2.60;;;18.30;49.80;;;;;;20895;6719;116923;-76
2023/03/30 13:13:17;;;;;;;4.43;2.70;;;18.20;50.20;;;;;;20931;6723;116961;-73
2023/03/30 13:15:53;;;;;;;4.17;2.87;;;18.00;50.60;;;;;;20553;6776;277660;-73
2023/03/30 13:18:28;;;;;;;4.60;3.15;;;18.00;49.60;;;;;;20697;6705;305033;-73
2023/03/30 13:21:03;;;;;;;3.83;3.00;;;18.30;49.70;;;;;;20940;6721;120762;-74
2023/03/30 13:23:40;;;;;;;6.17;2.80;;;18.30;49.90;;;;;;20840;6773;117386;-73
2023/03/30 13:26:16;;;;;;;5.47;3.20;;;18.40;48.30;;;;;;20681;6727;339647;-72
2023/03/30 13:28:53;;;;;;;4.07;2.73;;;18.40;48.30;;;;;;20958;6712;119064;-72
2023/03/30 13:31:51;;;;;;;3.40;2.80;;;18.50;48.50;;;;;;20991;6705;116907;-72
2023/03/30 13:34:46;;;;;;;2.63;2.43;;;18.30;49.00;;;;;;20874;6708;117074;-75
2023/03/30 13:37:44;;;;;;;5.07;2.50;;;18.20;49.40;;;;;;20862;6675;337673;-72
2023/03/30 13:40:23;;;;;;;6.20;2.73;;;18.40;47.70;;;;;;21082;6675;116628;-72
2023/03/30 13:43:02;;;;;;;3.90;2.70;;;18.30;48.00;;;;;;21066;6675;116689;-72